createdAt,value
2022-12-31T00:00:05.420Z,0.65
2022-12-31T00:02:31.993Z,0.90
2022-12-31T00:05:01.043Z,0.52
2022-12-31T00:07:27.625Z,0.30
2022-12-31T00:10:01.253Z,0.47
2022-12-31T00:12:27.719Z,0.80
2022-12-31T00:14:56.577Z,1.05
2022-12-31T00:17:25.338Z,0.43
2022-12-31T00:19:51.879Z,0.60
2022-12-31T00:22:20.936Z,0.30
2022-12-31T00:24:52.880Z,0.45
2022-12-31T00:27:26.359Z,0.47
2022-12-31T00:29:58.307Z,0.70
2022-12-31T00:32:29.031Z,0.63
2022-12-31T00:34:58.099Z,0.63
2022-12-31T00:37:26.966Z,0.40
2022-12-31T00:39:55.944Z,0.57
2022-12-31T00:42:22.468Z,0.65
2022-12-31T00:44:49.116Z,0.40
2022-12-31T00:47:15.619Z,0.50
2022-12-31T00:49:44.575Z,0.50
2022-12-31T00:52:15.868Z,0.43
2022-12-31T00:54:44.758Z,0.65
2022-12-31T00:57:13.695Z,0.40
2022-12-31T00:59:40.255Z,0.73
2022-12-31T01:02:09.121Z,0.77
2022-12-31T01:04:43.164Z,0.43
2022-12-31T01:07:09.679Z,0.93
2022-12-31T01:09:38.500Z,0.55
2022-12-31T01:12:05.250Z,1.38
2022-12-31T01:14:34.167Z,0.50
2022-12-31T01:17:03.089Z,0.45
2022-12-31T01:19:32.127Z,0.40
2022-12-31T01:22:01.077Z,0.80
2022-12-31T01:24:29.679Z,0.52
2022-12-31T01:26:59.274Z,0.63
2022-12-31T01:29:28.287Z,0.45
2022-12-31T01:31:56.864Z,0.50
2022-12-31T01:34:23.364Z,0.52
2022-12-31T01:36:49.874Z,0.35
2022-12-31T01:39:16.409Z,0.70
2022-12-31T01:41:46.009Z,0.80
2022-12-31T01:44:12.556Z,0.45
2022-12-31T01:46:59.264Z,0.30
2022-12-31T01:49:30.410Z,0.70
2022-12-31T01:52:02.597Z,1.17
2022-12-31T01:54:29.815Z,0.50
2022-12-31T01:56:58.719Z,0.32
2022-12-31T01:59:31.679Z,0.43
2022-12-31T02:02:01.422Z,1.73
2022-12-31T02:04:28.695Z,0.50
2022-12-31T02:07:01.296Z,1.17
2022-12-31T02:09:33.652Z,0.50
2022-12-31T02:12:03.039Z,2.15
2022-12-31T02:14:42.778Z,0.73
2022-12-31T02:17:18.253Z,0.40
2022-12-31T02:19:53.039Z,0.43
2022-12-31T02:22:22.799Z,0.47
2022-12-31T02:24:58.326Z,0.57
2022-12-31T02:27:42.886Z,0.47
2022-12-31T02:30:15.562Z,0.80
2022-12-31T02:32:54.038Z,0.32
2022-12-31T02:35:27.042Z,0.40
2022-12-31T02:37:56.200Z,0.60
2022-12-31T02:40:27.504Z,0.73
2022-12-31T02:42:56.445Z,0.77
2022-12-31T02:45:29.303Z,2.17
2022-12-31T02:48:01.882Z,1.40
2022-12-31T02:53:11.361Z,1.15
2022-12-31T02:55:41.333Z,0.40
2022-12-31T02:58:20.119Z,0.50
2022-12-31T03:01:14.086Z,1.73
2022-12-31T03:03:45.324Z,1.30
2022-12-31T03:06:14.679Z,0.65
2022-12-31T03:09:04.286Z,0.80
2022-12-31T03:11:49.532Z,0.63
2022-12-31T03:14:16.048Z,1.33
2022-12-31T03:16:42.591Z,0.30
2022-12-31T03:19:27.829Z,2.53
2022-12-31T03:22:12.919Z,1.50
2022-12-31T03:24:57.695Z,0.68
2022-12-31T03:27:26.676Z,1.10
2022-12-31T03:29:53.107Z,0.32
2022-12-31T03:32:21.684Z,0.57
2022-12-31T03:34:48.248Z,0.47
2022-12-31T03:37:14.694Z,0.40
2022-12-31T03:39:43.385Z,0.50
2022-12-31T03:42:12.353Z,0.65
2022-12-31T03:44:38.825Z,0.52
2022-12-31T03:47:07.773Z,0.50
2022-12-31T03:49:34.295Z,0.88
2022-12-31T03:52:02.991Z,0.70
2022-12-31T03:54:29.518Z,0.43
2022-12-31T03:57:00.088Z,0.47
2022-12-31T03:59:29.535Z,0.38
2022-12-31T04:01:58.656Z,0.43
2022-12-31T04:04:27.600Z,0.70
2022-12-31T04:06:56.431Z,0.63
2022-12-31T04:09:27.400Z,1.13
2022-12-31T04:11:56.930Z,0.22
2022-12-31T04:14:23.468Z,0.43
2022-12-31T04:16:52.312Z,0.40
2022-12-31T04:19:18.921Z,1.08
2022-12-31T04:21:47.815Z,0.55
2022-12-31T04:24:16.424Z,0.40
2022-12-31T04:26:49.624Z,0.22
2022-12-31T04:29:20.403Z,0.38
2022-12-31T04:31:51.692Z,0.80
2022-12-31T04:34:20.825Z,0.55
2022-12-31T04:36:52.308Z,0.43
2022-12-31T04:39:21.844Z,1.17
2022-12-31T04:41:49.524Z,1.10
2022-12-31T04:44:18.584Z,1.10
2022-12-31T04:46:47.632Z,0.57
2022-12-31T04:49:17.307Z,1.55
2022-12-31T04:51:52.069Z,1.27
2022-12-31T04:54:18.658Z,1.15
2022-12-31T04:56:47.585Z,0.95
2022-12-31T04:59:16.588Z,0.50
2022-12-31T05:01:48.680Z,1.33
2022-12-31T05:04:17.529Z,1.65
2022-12-31T05:06:48.332Z,0.43
2022-12-31T05:09:16.952Z,0.70
2022-12-31T05:11:45.749Z,0.85
2022-12-31T05:14:15.939Z,1.55
2022-12-31T05:16:47.208Z,1.65
2022-12-31T05:19:13.903Z,0.82
2022-12-31T05:21:42.645Z,3.20
2022-12-31T05:24:11.430Z,1.08
2022-12-31T05:26:37.943Z,0.90
2022-12-31T05:29:04.419Z,1.58
2022-12-31T05:31:31.002Z,0.93
2022-12-31T05:34:00.010Z,1.38
2022-12-31T05:36:31.743Z,2.25
2022-12-31T05:39:02.900Z,1.13
2022-12-31T05:41:29.427Z,1.73
2022-12-31T05:43:58.350Z,1.65
2022-12-31T05:46:27.323Z,1.85
2022-12-31T05:48:53.903Z,1.73
2022-12-31T05:51:22.793Z,2.17
2022-12-31T05:53:54.000Z,1.67
2022-12-31T05:56:25.779Z,1.30
2022-12-31T05:58:55.640Z,1.40
2022-12-31T06:01:22.578Z,1.40
2022-12-31T06:03:51.542Z,1.73
2022-12-31T06:06:20.231Z,2.20
2022-12-31T06:08:51.928Z,3.47
2022-12-31T06:11:18.503Z,1.70
2022-12-31T06:13:45.057Z,1.73
2022-12-31T06:16:14.209Z,1.77
2022-12-31T06:18:46.271Z,1.52
2022-12-31T06:21:16.026Z,2.85
2022-12-31T06:23:44.807Z,2.13
2022-12-31T06:26:11.390Z,1.40
2022-12-31T06:28:37.857Z,2.20
2022-12-31T06:31:13.385Z,2.08
2022-12-31T06:33:46.906Z,2.38
2022-12-31T06:36:14.352Z,2.40
2022-12-31T06:38:41.669Z,3.88
2022-12-31T06:41:13.684Z,1.92
2022-12-31T06:43:43.096Z,2.05
2022-12-31T06:46:15.742Z,2.50
2022-12-31T06:48:45.019Z,3.58
2022-12-31T06:51:16.951Z,2.47
2022-12-31T06:53:50.657Z,3.10
2022-12-31T06:56:21.611Z,2.90
2022-12-31T06:58:51.063Z,2.42
2022-12-31T07:01:38.971Z,3.65
2022-12-31T07:04:17.355Z,3.42
2022-12-31T07:06:58.693Z,2.08
2022-12-31T07:09:27.700Z,2.58
2022-12-31T07:12:04.168Z,2.20
2022-12-31T07:14:39.791Z,1.25
2022-12-31T07:17:11.563Z,3.28
2022-12-31T07:20:00.831Z,1.58
2022-12-31T07:22:29.728Z,6.53
2022-12-31T07:24:56.981Z,6.03
2022-12-31T07:27:55.081Z,5.32
2022-12-31T07:30:41.955Z,2.85
2022-12-31T07:33:14.314Z,5.70
2022-12-31T07:36:02.865Z,5.90
2022-12-31T07:38:47.800Z,3.03
2022-12-31T07:41:26.673Z,2.60
2022-12-31T07:44:06.500Z,4.88
2022-12-31T07:46:41.610Z,3.70
2022-12-31T07:49:12.434Z,3.70
2022-12-31T07:51:41.894Z,3.47
2022-12-31T07:54:14.221Z,3.22
2022-12-31T07:56:43.975Z,3.22
2022-12-31T07:59:29.121Z,2.85
2022-12-31T08:02:07.177Z,2.58
2022-12-31T08:04:39.833Z,1.98
2022-12-31T08:07:21.571Z,1.23
2022-12-31T08:09:56.526Z,0.68
2022-12-31T08:12:26.090Z,0.52
2022-12-31T08:14:55.392Z,1.60
2022-12-31T08:17:22.088Z,1.50
2022-12-31T08:19:48.808Z,0.65
2022-12-31T08:22:21.615Z,1.13
2022-12-31T08:25:07.097Z,1.60
2022-12-31T08:27:49.742Z,1.50
2022-12-31T08:30:17.532Z,0.80
2022-12-31T08:32:46.334Z,2.05
2022-12-31T08:35:15.821Z,1.42
2022-12-31T08:37:57.394Z,4.78
2022-12-31T08:40:36.398Z,12.32
2022-12-31T08:43:17.106Z,4.93
2022-12-31T08:45:47.691Z,0.93
2022-12-31T08:48:31.394Z,2.00
2022-12-31T08:51:00.302Z,1.15
2022-12-31T08:53:26.968Z,2.33
2022-12-31T08:56:02.949Z,1.90
2022-12-31T08:58:38.498Z,7.72
2022-12-31T09:01:10.468Z,30.02
2022-12-31T09:03:58.374Z,8.52
2022-12-31T09:06:41.055Z,3.38
2022-12-31T09:09:16.944Z,1.65
2022-12-31T09:11:54.608Z,1.10
2022-12-31T09:14:39.895Z,1.90
2022-12-31T09:19:34.947Z,0.85
2022-12-31T09:22:01.563Z,1.08
2022-12-31T09:24:28.166Z,1.67
2022-12-31T09:26:54.718Z,1.38
2022-12-31T09:29:31.836Z,1.10
2022-12-31T09:32:01.492Z,0.93
2022-12-31T09:34:35.869Z,2.03
2022-12-31T09:37:11.378Z,1.15
2022-12-31T09:39:45.076Z,0.65
2022-12-31T09:42:39.881Z,1.00
2022-12-31T09:45:24.099Z,1.75
2022-12-31T09:47:51.349Z,1.00
2022-12-31T09:50:20.812Z,2.70
2022-12-31T09:53:05.069Z,2.63
2022-12-31T09:55:35.167Z,1.02
2022-12-31T09:58:18.653Z,3.28
2022-12-31T10:00:45.152Z,10.30
2022-12-31T10:03:17.962Z,4.68
2022-12-31T10:05:55.347Z,5.40
2022-12-31T10:08:46.221Z,3.92
2022-12-31T10:11:23.512Z,2.90
2022-12-31T10:14:11.272Z,2.60
2022-12-31T10:16:49.361Z,3.80
2022-12-31T10:19:25.961Z,2.80
2022-12-31T10:22:11.246Z,2.75
2022-12-31T10:24:43.957Z,1.70
2022-12-31T10:27:25.011Z,3.05
2022-12-31T10:30:00.162Z,2.33
2022-12-31T10:32:35.180Z,0.52
2022-12-31T10:35:14.249Z,0.43
2022-12-31T10:37:43.568Z,0.60
2022-12-31T10:40:34.841Z,5.18
2022-12-31T10:43:04.350Z,2.30
2022-12-31T10:45:42.413Z,1.67
2022-12-31T10:48:14.991Z,1.27
2022-12-31T10:50:50.146Z,0.65
2022-12-31T10:53:18.106Z,0.70
2022-12-31T10:56:05.198Z,1.35
2022-12-31T10:58:45.852Z,0.47
2022-12-31T11:01:33.650Z,0.63
2022-12-31T11:04:14.414Z,0.95
2022-12-31T11:06:46.180Z,0.82
2022-12-31T11:09:12.678Z,0.30
2022-12-31T11:11:53.891Z,0.75
2022-12-31T11:14:35.036Z,0.50
2022-12-31T11:17:22.861Z,0.50
2022-12-31T11:19:57.787Z,0.28
2022-12-31T11:22:41.722Z,0.47
2022-12-31T11:25:25.229Z,0.32
2022-12-31T11:27:57.717Z,0.70
2022-12-31T11:30:26.731Z,0.35
2022-12-31T11:33:14.334Z,0.52
2022-12-31T11:35:46.323Z,0.40
2022-12-31T11:38:18.754Z,0.45
2022-12-31T11:40:54.276Z,0.32
2022-12-31T11:43:23.141Z,0.52
2022-12-31T11:45:54.884Z,0.73
2022-12-31T11:48:39.031Z,0.50
2022-12-31T11:51:24.222Z,0.45
2022-12-31T11:53:57.485Z,0.50
2022-12-31T11:56:30.794Z,0.55
2022-12-31T11:58:57.422Z,0.45
2022-12-31T12:01:33.340Z,0.45
2022-12-31T12:04:02.375Z,0.80
2022-12-31T12:06:30.537Z,0.50
2022-12-31T12:08:59.678Z,0.50
2022-12-31T12:11:30.474Z,0.30
2022-12-31T12:14:00.011Z,0.47
2022-12-31T12:16:27.950Z,0.70
2022-12-31T12:19:05.542Z,0.68
2022-12-31T12:21:34.564Z,0.50
2022-12-31T12:24:02.923Z,0.55
2022-12-31T12:26:41.502Z,0.50
2022-12-31T12:29:21.639Z,0.50
2022-12-31T12:32:03.512Z,1.15
2022-12-31T12:34:35.372Z,0.80
2022-12-31T12:37:07.484Z,0.68
2022-12-31T12:39:36.942Z,0.90
2022-12-31T12:42:15.256Z,0.32
2022-12-31T12:44:44.634Z,0.32
2022-12-31T12:47:18.165Z,0.60
2022-12-31T12:49:48.887Z,1.00
2022-12-31T12:52:15.432Z,0.40
2022-12-31T12:54:55.818Z,0.45
2022-12-31T12:57:40.669Z,0.40
2022-12-31T13:00:13.059Z,0.40
2022-12-31T13:05:12.070Z,0.82
2022-12-31T13:07:50.185Z,0.32
2022-12-31T13:10:16.697Z,1.35
2022-12-31T13:13:22.044Z,2.67
2022-12-31T13:15:35.312Z,2.40
2022-12-31T13:18:20.576Z,1.63
2022-12-31T13:20:58.671Z,1.60
2022-12-31T13:23:42.420Z,2.75
2022-12-31T13:26:11.248Z,1.80
2022-12-31T13:28:42.924Z,2.03
2022-12-31T13:31:14.653Z,1.42
2022-12-31T13:33:49.639Z,1.73
2022-12-31T13:36:29.151Z,1.50
2022-12-31T13:38:59.345Z,2.45
2022-12-31T13:41:57.319Z,2.28
2022-12-31T13:44:23.765Z,3.63
2022-12-31T13:47:06.934Z,2.33
2022-12-31T13:49:39.679Z,2.10
2022-12-31T13:52:27.546Z,3.45
2022-12-31T13:55:07.663Z,5.38
2022-12-31T13:57:54.508Z,3.47
2022-12-31T14:00:23.848Z,1.42
2022-12-31T14:03:04.950Z,2.42
2022-12-31T14:05:39.911Z,1.95
2022-12-31T14:08:06.664Z,1.42
2022-12-31T14:10:38.617Z,4.20
2022-12-31T14:13:25.686Z,1.90
2022-12-31T14:15:58.105Z,1.70
2022-12-31T14:18:34.326Z,2.00
2022-12-31T14:21:05.151Z,1.55
2022-12-31T14:23:31.679Z,1.90
2022-12-31T14:26:02.241Z,3.55
2022-12-31T14:28:55.163Z,3.33
2022-12-31T14:31:40.376Z,3.58
2022-12-31T14:34:15.590Z,4.53
2022-12-31T14:36:45.039Z,3.63
2022-12-31T14:39:14.752Z,3.38
2022-12-31T14:42:04.624Z,2.63
2022-12-31T14:44:49.922Z,4.82
2022-12-31T14:47:25.324Z,4.90
2022-12-31T14:49:57.247Z,3.78
2022-12-31T14:52:23.977Z,2.50
2022-12-31T14:55:25.422Z,4.30
2022-12-31T14:58:26.418Z,9.27
2022-12-31T15:00:41.979Z,4.68
2022-12-31T15:03:13.339Z,9.50
2022-12-31T15:05:50.899Z,12.23
2022-12-31T15:08:26.536Z,10.55
2022-12-31T15:10:58.081Z,29.83
2022-12-31T15:13:24.611Z,18.40
2022-12-31T15:16:09.970Z,11.10
2022-12-31T15:18:42.117Z,19.67
2022-12-31T15:21:17.849Z,13.98
2022-12-31T15:23:44.799Z,11.55
2022-12-31T15:26:27.556Z,12.85
2022-12-31T15:31:25.358Z,9.70
2022-12-31T15:33:56.478Z,8.73
2022-12-31T15:36:24.154Z,8.77
2022-12-31T15:39:03.488Z,11.00
2022-12-31T15:41:36.744Z,11.15
2022-12-31T15:44:17.105Z,7.88
2022-12-31T15:46:44.186Z,9.63
2022-12-31T15:49:20.680Z,8.05
2022-12-31T15:51:50.380Z,7.15
2022-12-31T15:54:25.464Z,11.77
2022-12-31T15:56:55.000Z,10.07
2022-12-31T15:59:26.108Z,10.35
2022-12-31T16:01:54.348Z,10.32
2022-12-31T16:04:25.451Z,10.88
2022-12-31T16:06:52.564Z,6.97
2022-12-31T16:09:35.897Z,7.55
2022-12-31T16:12:06.731Z,7.18
2022-12-31T16:14:38.666Z,10.10
2022-12-31T16:17:07.661Z,10.35
2022-12-31T16:19:36.556Z,8.82
2022-12-31T16:22:16.658Z,11.57
2022-12-31T16:25:28.489Z,8.05
2022-12-31T16:27:41.642Z,9.23
2022-12-31T16:30:25.751Z,9.82
2022-12-31T16:32:56.155Z,8.80
2022-12-31T16:35:31.094Z,8.50
2022-12-31T16:38:17.769Z,6.30
2022-12-31T16:41:06.040Z,9.15
2022-12-31T16:43:36.855Z,11.90
2022-12-31T16:46:14.094Z,11.88
2022-12-31T16:48:45.168Z,14.45
2022-12-31T16:51:17.000Z,8.98
2022-12-31T16:53:47.213Z,9.77
2022-12-31T16:56:19.854Z,12.13
2022-12-31T16:58:51.135Z,10.13
2022-12-31T17:01:22.615Z,7.70
2022-12-31T17:03:51.943Z,7.30
2022-12-31T17:06:19.363Z,6.45
2022-12-31T17:09:01.162Z,6.45
2022-12-31T17:11:30.702Z,7.80
2022-12-31T17:14:00.602Z,6.40
2022-12-31T17:16:27.160Z,8.32
2022-12-31T17:18:53.812Z,7.70
2022-12-31T17:21:24.213Z,11.73
2022-12-31T17:23:54.267Z,12.02
2022-12-31T17:26:27.796Z,13.15
2022-12-31T17:28:55.250Z,12.05
2022-12-31T17:31:40.832Z,11.45
2022-12-31T17:34:12.502Z,9.25
2022-12-31T17:36:55.247Z,6.30
2022-12-31T17:39:22.811Z,6.65
2022-12-31T17:41:55.942Z,7.50
2022-12-31T17:44:29.236Z,6.93
2022-12-31T17:47:02.783Z,9.27
2022-12-31T17:49:33.285Z,12.65
2022-12-31T17:52:07.475Z,13.13
2022-12-31T17:54:34.015Z,15.88
2022-12-31T17:57:02.879Z,11.80
2022-12-31T17:59:33.347Z,12.35
2022-12-31T18:02:03.375Z,9.38
2022-12-31T18:04:30.068Z,7.00
2022-12-31T18:06:56.519Z,11.32
2022-12-31T18:11:49.397Z,6.60
2022-12-31T18:14:18.356Z,5.63
2022-12-31T18:16:48.161Z,6.47
2022-12-31T18:19:37.878Z,4.75
2022-12-31T18:22:04.231Z,5.65
2022-12-31T18:24:33.347Z,8.13
2022-12-31T18:27:04.972Z,5.05
2022-12-31T18:29:31.501Z,5.25
2022-12-31T18:32:03.037Z,3.50
2022-12-31T18:34:29.633Z,6.10
2022-12-31T18:39:24.977Z,4.20
2022-12-31T18:41:54.047Z,3.67
2022-12-31T18:44:20.576Z,3.20
2022-12-31T18:46:51.490Z,4.00
2022-12-31T18:49:21.611Z,4.13
2022-12-31T18:51:53.370Z,4.68
2022-12-31T18:54:24.546Z,3.85
2022-12-31T18:56:56.754Z,6.53
2022-12-31T18:59:23.686Z,4.43
2022-12-31T19:04:26.618Z,3.53
2022-12-31T19:06:54.446Z,4.15
2022-12-31T19:09:44.155Z,7.88
2022-12-31T19:12:13.540Z,10.43
2022-12-31T19:14:40.257Z,6.05
2022-12-31T19:19:39.305Z,3.42
2022-12-31T19:22:08.171Z,3.53
2022-12-31T19:24:36.950Z,4.88
2022-12-31T19:27:08.480Z,5.15
2022-12-31T19:29:39.968Z,4.97
2022-12-31T19:32:06.482Z,2.78
2022-12-31T19:34:35.580Z,1.63
2022-12-31T19:37:02.112Z,1.17
2022-12-31T19:39:31.078Z,1.05
2022-12-31T19:42:00.163Z,0.80
2022-12-31T19:44:28.929Z,1.02
2022-12-31T19:46:55.449Z,4.95
2022-12-31T19:49:22.072Z,10.55
2022-12-31T19:51:48.642Z,3.03
2022-12-31T19:54:15.256Z,0.88
2022-12-31T19:56:44.179Z,0.63
2022-12-31T19:59:13.355Z,0.47
2022-12-31T20:01:42.521Z,0.90
2022-12-31T20:04:09.196Z,0.60
2022-12-31T20:09:02.663Z,0.90
2022-12-31T20:11:29.156Z,0.77
2022-12-31T20:14:00.657Z,0.68
2022-12-31T20:16:29.765Z,0.75
2022-12-31T20:18:58.672Z,0.90
2022-12-31T20:23:52.570Z,1.08
2022-12-31T20:26:21.996Z,1.67
2022-12-31T20:28:51.012Z,1.38
2022-12-31T20:31:21.305Z,1.27
2022-12-31T20:33:48.209Z,0.45
2022-12-31T20:36:17.772Z,1.63
2022-12-31T20:38:44.916Z,1.25
2022-12-31T20:41:12.901Z,1.17
2022-12-31T20:43:42.056Z,2.03
2022-12-31T20:46:16.122Z,0.85
2022-12-31T20:48:48.929Z,0.77
2022-12-31T20:51:18.994Z,0.77
2022-12-31T20:53:48.380Z,0.43
2022-12-31T20:56:18.090Z,0.68
2022-12-31T20:58:47.025Z,0.47
2022-12-31T21:01:14.226Z,0.63
2022-12-31T21:06:31.718Z,0.50
2022-12-31T21:08:59.303Z,0.43
2022-12-31T21:11:44.531Z,0.60
2022-12-31T21:16:37.507Z,1.85
2022-12-31T21:19:11.575Z,1.45
2022-12-31T21:21:40.428Z,4.70
2022-12-31T21:24:07.066Z,5.72
2022-12-31T21:26:34.367Z,5.60
2022-12-31T21:29:03.199Z,7.25
2022-12-31T21:31:31.910Z,6.10
2022-12-31T21:34:00.964Z,5.45
2022-12-31T21:36:27.557Z,4.25
2022-12-31T21:38:54.188Z,3.20
2022-12-31T21:41:44.035Z,8.20
2022-12-31T21:44:12.983Z,4.07
2022-12-31T21:47:15.788Z,4.57
2022-12-31T21:49:30.655Z,3.95
2022-12-31T21:52:15.743Z,5.60
2022-12-31T21:55:03.235Z,4.65
2022-12-31T21:57:46.223Z,6.07
2022-12-31T22:00:44.339Z,7.13
2022-12-31T22:03:27.463Z,6.25
2022-12-31T22:05:56.606Z,5.10
2022-12-31T22:08:23.168Z,4.57
2022-12-31T22:10:52.953Z,5.88
2022-12-31T22:13:22.327Z,5.47
2022-12-31T22:15:52.011Z,6.15
2022-12-31T22:18:21.211Z,22.52
2022-12-31T22:20:50.103Z,16.65
2022-12-31T22:23:19.111Z,14.63
2022-12-31T22:25:50.715Z,23.65
2022-12-31T22:31:09.021Z,11.63
2022-12-31T22:33:38.089Z,9.50
2022-12-31T22:36:06.585Z,6.13
2022-12-31T22:38:39.012Z,5.57
2022-12-31T22:41:10.575Z,6.80
2022-12-31T22:43:38.820Z,4.00
2022-12-31T22:46:08.842Z,3.50
2022-12-31T22:48:38.574Z,9.63
2022-12-31T22:51:05.328Z,4.25
2022-12-31T22:53:34.244Z,5.95
2022-12-31T22:56:00.808Z,5.45
2022-12-31T22:58:27.528Z,5.30
2022-12-31T23:00:56.599Z,4.70
2022-12-31T23:03:25.487Z,5.10
2022-12-31T23:05:52.556Z,4.60
2022-12-31T23:08:23.606Z,3.80
2022-12-31T23:11:00.373Z,3.50
2022-12-31T23:13:54.725Z,3.80
2022-12-31T23:16:42.713Z,7.80
2022-12-31T23:19:27.881Z,6.47
2022-12-31T23:22:15.644Z,7.07
2022-12-31T23:24:42.708Z,7.95
2022-12-31T23:27:14.381Z,10.55
2022-12-31T23:29:47.186Z,7.65
2022-12-31T23:32:17.375Z,9.57
2022-12-31T23:34:44.639Z,9.57
2022-12-31T23:37:14.284Z,9.75
2022-12-31T23:39:43.137Z,10.63
2022-12-31T23:42:19.303Z,9.30
2022-12-31T23:44:48.088Z,8.02
2022-12-31T23:47:16.945Z,10.23
2022-12-31T23:49:43.456Z,8.77
2022-12-31T23:52:15.468Z,9.40
2022-12-31T23:54:44.549Z,9.27
2022-12-31T23:57:13.556Z,10.57
2022-12-31T23:59:40.072Z,7.60
